sensor_id;sensor_type;location;lat;lon;timestamp;temperature;humidity
69715;HTU21D;56981;53.532;49.398;2024-03-07T00:00:12;-11.65;75.21
69715;HTU21D;56981;53.532;49.398;2024-03-07T00:02:47;-11.69;75.51
69715;HTU21D;56981;53.532;49.398;2024-03-07T00:05:20;-11.70;75.60
69715;HTU21D;56981;53.532;49.398;2024-03-07T00:07:47;-11.81;77.75
69715;HTU21D;56981;53.532;49.398;2024-03-07T00:10:13;-11.93;78.47
69715;HTU21D;56981;53.532;49.398;2024-03-07T00:12:41;-11.86;77.08
69715;HTU21D;56981;53.532;49.398;2024-03-07T00:15:08;-11.84;76.80
69715;HTU21D;56981;53.532;49.398;2024-03-07T00:17:35;-11.82;76.56
69715;HTU21D;56981;53.532;49.398;2024-03-07T00:20:01;-11.89;76.21
69715;HTU21D;56981;53.532;49.398;2024-03-07T00:22:31;-11.85;76.61
69715;HTU21D;56981;53.532;49.398;2024-03-07T00:24:57;-11.94;76.13
69715;HTU21D;56981;53.532;49.398;2024-03-07T00:27:23;-12.01;76.24
69715;HTU21D;56981;53.532;49.398;2024-03-07T00:29:49;-12.00;75.29
69715;HTU21D;56981;53.532;49.398;2024-03-07T00:32:20;-12.04;75.12
69715;HTU21D;56981;53.532;49.398;2024-03-07T00:34:46;-12.03;75.88
69715;HTU21D;56981;53.532;49.398;2024-03-07T00:37:13;-12.00;75.89
69715;HTU21D;56981;53.532;49.398;2024-03-07T00:39:39;-12.09;75.80
69715;HTU21D;56981;53.532;49.398;2024-03-07T00:42:05;-12.11;75.91
69715;HTU21D;56981;53.532;49.398;2024-03-07T00:44:31;-12.13;76.41
69715;HTU21D;56981;53.532;49.398;2024-03-07T00:46:57;-12.21;76.63
69715;HTU21D;56981;53.532;49.398;2024-03-07T00:49:23;-12.19;76.28
69715;HTU21D;56981;53.532;49.398;2024-03-07T00:51:49;-12.27;76.40
69715;HTU21D;56981;53.532;49.398;2024-03-07T00:54:16;-12.25;76.95
69715;HTU21D;56981;53.532;49.398;2024-03-07T00:56:42;-12.26;76.43
69715;HTU21D;56981;53.532;49.398;2024-03-07T00:59:08;-12.21;76.73
69715;HTU21D;56981;53.532;49.398;2024-03-07T01:01:34;-12.27;77.36
69715;HTU21D;56981;53.532;49.398;2024-03-07T01:04:03;-12.27;77.11
69715;HTU21D;56981;53.532;49.398;2024-03-07T01:06:29;-12.25;77.31
69715;HTU21D;56981;53.532;49.398;2024-03-07T01:08:55;-12.18;76.39
69715;HTU21D;56981;53.532;49.398;2024-03-07T01:11:22;-12.18;76.66
69715;HTU21D;56981;53.532;49.398;2024-03-07T01:13:48;-12.23;75.71
69715;HTU21D;56981;53.532;49.398;2024-03-07T01:16:14;-12.24;76.98
69715;HTU21D;56981;53.532;49.398;2024-03-07T01:18:40;-12.23;77.48
69715;HTU21D;56981;53.532;49.398;2024-03-07T01:21:06;-12.15;78.47
69715;HTU21D;56981;53.532;49.398;2024-03-07T01:23:34;-12.12;76.78
69715;HTU21D;56981;53.532;49.398;2024-03-07T01:26:00;-12.08;77.31
69715;HTU21D;56981;53.532;49.398;2024-03-07T01:28:27;-12.06;78.21
69715;HTU21D;56981;53.532;49.398;2024-03-07T01:30:57;-11.98;76.98
69715;HTU21D;56981;53.532;49.398;2024-03-07T01:33:24;-11.81;77.60
69715;HTU21D;56981;53.532;49.398;2024-03-07T01:35:50;-11.79;76.39
69715;HTU21D;56981;53.532;49.398;2024-03-07T01:38:16;-11.75;76.46
69715;HTU21D;56981;53.532;49.398;2024-03-07T01:40:43;-11.67;75.67
69715;HTU21D;56981;53.532;49.398;2024-03-07T01:43:10;-11.77;75.76
69715;HTU21D;56981;53.532;49.398;2024-03-07T01:45:38;-11.66;76.32
69715;HTU21D;56981;53.532;49.398;2024-03-07T01:48:11;-11.49;77.24
69715;HTU21D;56981;53.532;49.398;2024-03-07T01:50:39;-11.39;77.60
69715;HTU21D;56981;53.532;49.398;2024-03-07T01:53:10;-11.46;77.69
69715;HTU21D;56981;53.532;49.398;2024-03-07T01:55:38;-11.40;78.59
69715;HTU21D;56981;53.532;49.398;2024-03-07T01:58:05;-11.27;77.69
69715;HTU21D;56981;53.532;49.398;2024-03-07T02:00:32;-11.17;77.50
69715;HTU21D;56981;53.532;49.398;2024-03-07T02:02:58;-11.05;77.36
69715;HTU21D;56981;53.532;49.398;2024-03-07T02:05:25;-10.92;76.96
69715;HTU21D;56981;53.532;49.398;2024-03-07T02:07:51;-10.72;77.32
69715;HTU21D;56981;53.532;49.398;2024-03-07T02:10:17;-10.72;76.63
69715;HTU21D;56981;53.532;49.398;2024-03-07T02:12:44;-10.62;77.41
69715;HTU21D;56981;53.532;49.398;2024-03-07T02:15:11;-10.55;76.45
69715;HTU21D;56981;53.532;49.398;2024-03-07T02:17:40;-10.48;76.05
69715;HTU21D;56981;53.532;49.398;2024-03-07T02:20:06;-10.43;76.44
69715;HTU21D;56981;53.532;49.398;2024-03-07T02:22:33;-10.36;76.12
69715;HTU21D;56981;53.532;49.398;2024-03-07T02:24:59;-10.23;76.84
69715;HTU21D;56981;53.532;49.398;2024-03-07T02:27:26;-10.10;76.89
69715;HTU21D;56981;53.532;49.398;2024-03-07T02:29:52;-10.00;76.87
69715;HTU21D;56981;53.532;49.398;2024-03-07T02:32:18;-10.03;75.66
69715;HTU21D;56981;53.532;49.398;2024-03-07T02:34:44;-10.03;75.14
69715;HTU21D;56981;53.532;49.398;2024-03-07T02:37:10;-10.06;75.82
69715;HTU21D;56981;53.532;49.398;2024-03-07T02:39:36;-10.11;76.48
69715;HTU21D;56981;53.532;49.398;2024-03-07T02:42:03;-10.20;76.41
69715;HTU21D;56981;53.532;49.398;2024-03-07T02:44:29;-10.31;77.65
69715;HTU21D;56981;53.532;49.398;2024-03-07T02:46:58;-10.32;78.53
69715;HTU21D;56981;53.532;49.398;2024-03-07T02:49:24;-10.14;78.84
69715;HTU21D;56981;53.532;49.398;2024-03-07T02:51:50;-10.14;77.67
69715;HTU21D;56981;53.532;49.398;2024-03-07T02:54:17;-10.02;77.13
69715;HTU21D;56981;53.532;49.398;2024-03-07T02:56:43;-9.87;77.85
69715;HTU21D;56981;53.532;49.398;2024-03-07T02:59:11;-9.79;76.92
69715;HTU21D;56981;53.532;49.398;2024-03-07T03:01:37;-9.57;77.14
69715;HTU21D;56981;53.532;49.398;2024-03-07T03:04:03;-9.53;76.32
69715;HTU21D;56981;53.532;49.398;2024-03-07T03:06:29;-9.44;76.98
69715;HTU21D;56981;53.532;49.398;2024-03-07T03:08:55;-9.49;76.12
69715;HTU21D;56981;53.532;49.398;2024-03-07T03:11:21;-9.32;76.36
69715;HTU21D;56981;53.532;49.398;2024-03-07T03:13:48;-9.26;76.26
69715;HTU21D;56981;53.532;49.398;2024-03-07T03:16:15;-9.36;75.74
69715;HTU21D;56981;53.532;49.398;2024-03-07T03:18:41;-9.37;75.34
69715;HTU21D;56981;53.532;49.398;2024-03-07T03:21:08;-9.37;75.99
69715;HTU21D;56981;53.532;49.398;2024-03-07T03:23:34;-9.30;76.50
69715;HTU21D;56981;53.532;49.398;2024-03-07T03:26:01;-9.26;76.39
69715;HTU21D;56981;53.532;49.398;2024-03-07T03:28:28;-9.27;76.44
69715;HTU21D;56981;53.532;49.398;2024-03-07T03:30:55;-9.16;76.22
69715;HTU21D;56981;53.532;49.398;2024-03-07T03:33:21;-9.12;76.22
69715;HTU21D;56981;53.532;49.398;2024-03-07T03:35:47;-9.08;76.32
69715;HTU21D;56981;53.532;49.398;2024-03-07T03:38:13;-9.15;77.23
69715;HTU21D;56981;53.532;49.398;2024-03-07T03:40:39;-9.13;77.72
69715;HTU21D;56981;53.532;49.398;2024-03-07T03:43:05;-9.05;77.27
69715;HTU21D;56981;53.532;49.398;2024-03-07T03:45:31;-9.09;77.37
69715;HTU21D;56981;53.532;49.398;2024-03-07T03:47:59;-9.09;76.66
69715;HTU21D;56981;53.532;49.398;2024-03-07T03:50:25;-9.03;76.79
69715;HTU21D;56981;53.532;49.398;2024-03-07T03:52:52;-8.86;77.37
69715;HTU21D;56981;53.532;49.398;2024-03-07T03:55:18;-8.72;76.42
69715;HTU21D;56981;53.532;49.398;2024-03-07T03:57:46;-8.63;75.79
69715;HTU21D;56981;53.532;49.398;2024-03-07T04:00:15;-8.45;75.89
69715;HTU21D;56981;53.532;49.398;2024-03-07T04:02:44;-8.45;75.14
69715;HTU21D;56981;53.532;49.398;2024-03-07T04:05:14;-8.42;75.28
69715;HTU21D;56981;53.532;49.398;2024-03-07T04:07:41;-8.36;75.25
69715;HTU21D;56981;53.532;49.398;2024-03-07T04:10:08;-8.25;74.41
69715;HTU21D;56981;53.532;49.398;2024-03-07T04:12:35;-8.11;74.53
69715;HTU21D;56981;53.532;49.398;2024-03-07T04:15:14;-8.06;73.67
69715;HTU21D;56981;53.532;49.398;2024-03-07T04:17:42;-7.98;73.75
69715;HTU21D;56981;53.532;49.398;2024-03-07T04:20:10;-8.01;72.05
69715;HTU21D;56981;53.532;49.398;2024-03-07T04:22:37;-8.03;72.85
69715;HTU21D;56981;53.532;49.398;2024-03-07T04:25:07;-7.97;72.76
69715;HTU21D;56981;53.532;49.398;2024-03-07T04:27:34;-7.89;71.86
69715;HTU21D;56981;53.532;49.398;2024-03-07T04:30:06;-7.85;71.64
69715;HTU21D;56981;53.532;49.398;2024-03-07T04:32:33;-7.61;71.81
69715;HTU21D;56981;53.532;49.398;2024-03-07T04:35:05;-7.48;70.29
69715;HTU21D;56981;53.532;49.398;2024-03-07T04:37:42;-7.42;71.11
69715;HTU21D;56981;53.532;49.398;2024-03-07T04:40:09;-7.31;70.74
69715;HTU21D;56981;53.532;49.398;2024-03-07T04:42:43;-7.12;70.49
69715;HTU21D;56981;53.532;49.398;2024-03-07T04:45:10;-7.16;70.49
69715;HTU21D;56981;53.532;49.398;2024-03-07T04:47:40;-7.15;69.85
69715;HTU21D;56981;53.532;49.398;2024-03-07T04:50:10;-7.01;69.43
69715;HTU21D;56981;53.532;49.398;2024-03-07T04:52:40;-6.86;69.79
69715;HTU21D;56981;53.532;49.398;2024-03-07T04:55:07;-6.67;68.47
69715;HTU21D;56981;53.532;49.398;2024-03-07T04:57:39;-6.53;67.31
69715;HTU21D;56981;53.532;49.398;2024-03-07T05:00:08;-6.57;67.28
69715;HTU21D;56981;53.532;49.398;2024-03-07T05:02:43;-6.57;67.30
69715;HTU21D;56981;53.532;49.398;2024-03-07T05:05:10;-6.51;67.45
69715;HTU21D;56981;53.532;49.398;2024-03-07T05:07:36;-6.35;67.33
69715;HTU21D;56981;53.532;49.398;2024-03-07T05:10:06;-6.30;65.50
69715;HTU21D;56981;53.532;49.398;2024-03-07T05:12:33;-6.12;65.68
69715;HTU21D;56981;53.532;49.398;2024-03-07T05:14:59;-6.11;64.80
69715;HTU21D;56981;53.532;49.398;2024-03-07T05:17:25;-6.15;64.33
69715;HTU21D;56981;53.532;49.398;2024-03-07T05:19:51;-6.02;64.56
69715;HTU21D;56981;53.532;49.398;2024-03-07T05:22:17;-5.88;63.62
69715;HTU21D;56981;53.532;49.398;2024-03-07T05:24:46;-5.93;63.76
69715;HTU21D;56981;53.532;49.398;2024-03-07T05:27:12;-5.84;63.93
69715;HTU21D;56981;53.532;49.398;2024-03-07T05:29:38;-5.56;63.53
69715;HTU21D;56981;53.532;49.398;2024-03-07T05:34:48;-4.98;62.86
69715;HTU21D;56981;53.532;49.398;2024-03-07T05:37:14;-4.79;60.56
69715;HTU21D;56981;53.532;49.398;2024-03-07T05:39:40;-4.66;59.90
69715;HTU21D;56981;53.532;49.398;2024-03-07T05:42:06;-4.56;59.90
69715;HTU21D;56981;53.532;49.398;2024-03-07T05:44:35;-4.46;59.05
69715;HTU21D;56981;53.532;49.398;2024-03-07T05:47:01;-4.31;59.15
69715;HTU21D;56981;53.532;49.398;2024-03-07T05:49:28;-4.17;59.22
69715;HTU21D;56981;53.532;49.398;2024-03-07T05:51:56;-4.08;59.96
69715;HTU21D;56981;53.532;49.398;2024-03-07T05:54:24;-3.93;59.28
69715;HTU21D;56981;53.532;49.398;2024-03-07T05:56:50;-3.60;58.67
69715;HTU21D;56981;53.532;49.398;2024-03-07T05:59:17;-3.42;56.44
69715;HTU21D;56981;53.532;49.398;2024-03-07T06:01:43;-3.28;56.97
69715;HTU21D;56981;53.532;49.398;2024-03-07T06:04:09;-3.18;56.63
69715;HTU21D;56981;53.532;49.398;2024-03-07T06:06:36;-3.22;55.16
69715;HTU21D;56981;53.532;49.398;2024-03-07T06:09:05;-3.22;56.49
69715;HTU21D;56981;53.532;49.398;2024-03-07T06:11:37;-3.32;55.52
69715;HTU21D;56981;53.532;49.398;2024-03-07T06:14:07;-3.25;56.03
69715;HTU21D;56981;53.532;49.398;2024-03-07T06:16:35;-3.26;56.28
69715;HTU21D;56981;53.532;49.398;2024-03-07T06:19:07;-3.11;57.15
69715;HTU21D;56981;53.532;49.398;2024-03-07T06:21:34;-2.92;56.13
69715;HTU21D;56981;53.532;49.398;2024-03-07T06:24:00;-2.82;55.88
69715;HTU21D;56981;53.532;49.398;2024-03-07T06:26:32;-2.46;56.02
69715;HTU21D;56981;53.532;49.398;2024-03-07T06:29:14;-2.30;53.99
69715;HTU21D;56981;53.532;49.398;2024-03-07T06:31:42;-2.21;53.98
69715;HTU21D;56981;53.532;49.398;2024-03-07T06:34:08;-2.39;53.36
69715;HTU21D;56981;53.532;49.398;2024-03-07T06:36:35;-2.48;53.95
69715;HTU21D;56981;53.532;49.398;2024-03-07T06:39:02;-2.57;54.01
69715;HTU21D;56981;53.532;49.398;2024-03-07T06:41:33;-2.41;53.95
69715;HTU21D;56981;53.532;49.398;2024-03-07T06:43:59;-2.17;54.10
69715;HTU21D;56981;53.532;49.398;2024-03-07T06:46:26;-2.07;52.63
69715;HTU21D;56981;53.532;49.398;2024-03-07T06:48:52;-2.05;53.42
69715;HTU21D;56981;53.532;49.398;2024-03-07T06:51:19;-1.79;52.65
69715;HTU21D;56981;53.532;49.398;2024-03-07T06:53:45;-1.89;50.93
69715;HTU21D;56981;53.532;49.398;2024-03-07T06:56:16;-1.89;51.40
69715;HTU21D;56981;53.532;49.398;2024-03-07T06:58:43;-1.71;51.87
69715;HTU21D;56981;53.532;49.398;2024-03-07T07:01:12;-1.62;50.24
69715;HTU21D;56981;53.532;49.398;2024-03-07T07:03:41;-1.54;50.25
69715;HTU21D;56981;53.532;49.398;2024-03-07T07:06:09;-1.57;50.50
69715;HTU21D;56981;53.532;49.398;2024-03-07T07:08:36;-1.63;50.53
69715;HTU21D;56981;53.532;49.398;2024-03-07T07:11:03;-1.52;49.50
69715;HTU21D;56981;53.532;49.398;2024-03-07T07:13:32;-1.30;49.09
69715;HTU21D;56981;53.532;49.398;2024-03-07T07:16:17;-1.23;49.62
69715;HTU21D;56981;53.532;49.398;2024-03-07T07:18:47;-1.18;50.05
69715;HTU21D;56981;53.532;49.398;2024-03-07T07:21:13;-1.14;50.00
69715;HTU21D;56981;53.532;49.398;2024-03-07T07:23:41;-1.00;48.76
69715;HTU21D;56981;53.532;49.398;2024-03-07T07:26:08;-0.99;50.26
69715;HTU21D;56981;53.532;49.398;2024-03-07T07:28:34;-0.94;49.48
69715;HTU21D;56981;53.532;49.398;2024-03-07T07:31:02;-1.06;49.70
69715;HTU21D;56981;53.532;49.398;2024-03-07T07:33:28;-1.10;51.11
69715;HTU21D;56981;53.532;49.398;2024-03-07T07:35:55;-0.99;50.02
69715;HTU21D;56981;53.532;49.398;2024-03-07T07:38:20;-0.80;49.50
69715;HTU21D;56981;53.532;49.398;2024-03-07T07:40:47;-0.81;50.66
69715;HTU21D;56981;53.532;49.398;2024-03-07T07:43:13;-0.75;50.82
69715;HTU21D;56981;53.532;49.398;2024-03-07T07:45:39;-0.52;50.14
69715;HTU21D;56981;53.532;49.398;2024-03-07T07:48:06;-0.38;49.97
69715;HTU21D;56981;53.532;49.398;2024-03-07T07:50:32;-0.45;49.64
69715;HTU21D;56981;53.532;49.398;2024-03-07T07:53:00;-0.60;48.74
69715;HTU21D;56981;53.532;49.398;2024-03-07T07:55:28;-0.38;50.02
69715;HTU21D;56981;53.532;49.398;2024-03-07T07:57:55;-0.46;49.79
69715;HTU21D;56981;53.532;49.398;2024-03-07T08:00:24;-0.41;50.97
69715;HTU21D;56981;53.532;49.398;2024-03-07T08:03:01;-0.16;50.62
69715;HTU21D;56981;53.532;49.398;2024-03-07T08:05:35;-0.31;50.49
69715;HTU21D;56981;53.532;49.398;2024-03-07T08:08:04;-0.37;49.74
69715;HTU21D;56981;53.532;49.398;2024-03-07T08:10:32;-0.19;49.96
69715;HTU21D;56981;53.532;49.398;2024-03-07T08:13:00;-0.14;49.14
69715;HTU21D;56981;53.532;49.398;2024-03-07T08:15:28;-0.16;50.15
69715;HTU21D;56981;53.532;49.398;2024-03-07T08:17:55;-0.15;51.12
69715;HTU21D;56981;53.532;49.398;2024-03-07T08:20:25;-0.19;50.92
69715;HTU21D;56981;53.532;49.398;2024-03-07T08:22:52;-0.22;50.53
69715;HTU21D;56981;53.532;49.398;2024-03-07T08:25:23;-0.02;50.25
69715;HTU21D;56981;53.532;49.398;2024-03-07T08:27:51;0.17;49.50
69715;HTU21D;56981;53.532;49.398;2024-03-07T08:30:18;0.18;50.34
69715;HTU21D;56981;53.532;49.398;2024-03-07T08:32:49;0.16;49.81
69715;HTU21D;56981;53.532;49.398;2024-03-07T08:35:21;0.27;49.85
69715;HTU21D;56981;53.532;49.398;2024-03-07T08:37:49;0.34;50.76
69715;HTU21D;56981;53.532;49.398;2024-03-07T08:40:20;0.35;49.44
69715;HTU21D;56981;53.532;49.398;2024-03-07T08:42:48;0.53;49.74
69715;HTU21D;56981;53.532;49.398;2024-03-07T08:45:16;0.74;49.10
69715;HTU21D;56981;53.532;49.398;2024-03-07T08:47:46;0.63;49.41
69715;HTU21D;56981;53.532;49.398;2024-03-07T08:50:13;0.67;50.98
69715;HTU21D;56981;53.532;49.398;2024-03-07T08:52:40;0.75;51.45
69715;HTU21D;56981;53.532;49.398;2024-03-07T08:55:13;0.95;51.88
69715;HTU21D;56981;53.532;49.398;2024-03-07T08:57:43;1.23;50.30
69715;HTU21D;56981;53.532;49.398;2024-03-07T09:00:12;1.29;49.92
69715;HTU21D;56981;53.532;49.398;2024-03-07T09:02:55;1.49;50.55
69715;HTU21D;56981;53.532;49.398;2024-03-07T09:05:23;1.60;49.50
69715;HTU21D;56981;53.532;49.398;2024-03-07T09:07:50;1.49;50.71
69715;HTU21D;56981;53.532;49.398;2024-03-07T09:10:17;0.89;52.62
69715;HTU21D;56981;53.532;49.398;2024-03-07T09:12:44;1.08;52.02
69715;HTU21D;56981;53.532;49.398;2024-03-07T09:15:10;0.96;52.38
69715;HTU21D;56981;53.532;49.398;2024-03-07T09:17:38;0.62;54.19
69715;HTU21D;56981;53.532;49.398;2024-03-07T09:20:05;0.95;54.55
69715;HTU21D;56981;53.532;49.398;2024-03-07T09:22:32;1.20;52.84
69715;HTU21D;56981;53.532;49.398;2024-03-07T09:24:59;1.35;51.66
69715;HTU21D;56981;53.532;49.398;2024-03-07T09:27:25;1.43;51.98
69715;HTU21D;56981;53.532;49.398;2024-03-07T09:29:51;1.45;52.13
69715;HTU21D;56981;53.532;49.398;2024-03-07T09:32:18;1.52;51.88
69715;HTU21D;56981;53.532;49.398;2024-03-07T09:34:44;1.48;52.68
69715;HTU21D;56981;53.532;49.398;2024-03-07T09:37:10;1.73;52.10
69715;HTU21D;56981;53.532;49.398;2024-03-07T09:39:36;1.82;49.79
69715;HTU21D;56981;53.532;49.398;2024-03-07T09:42:03;1.88;51.34
69715;HTU21D;56981;53.532;49.398;2024-03-07T09:44:31;1.28;51.56
69715;HTU21D;56981;53.532;49.398;2024-03-07T09:47:00;1.21;52.39
69715;HTU21D;56981;53.532;49.398;2024-03-07T09:49:28;1.65;53.36
69715;HTU21D;56981;53.532;49.398;2024-03-07T09:51:55;1.98;51.85
69715;HTU21D;56981;53.532;49.398;2024-03-07T09:54:25;2.02;50.30
69715;HTU21D;56981;53.532;49.398;2024-03-07T09:56:53;2.23;49.55
69715;HTU21D;56981;53.532;49.398;2024-03-07T09:59:24;2.32;49.01
69715;HTU21D;56981;53.532;49.398;2024-03-07T10:01:55;2.61;49.47
69715;HTU21D;56981;53.532;49.398;2024-03-07T10:04:31;2.65;48.44
69715;HTU21D;56981;53.532;49.398;2024-03-07T10:07:09;2.27;48.59
69715;HTU21D;56981;53.532;49.398;2024-03-07T10:09:44;2.29;48.90
69715;HTU21D;56981;53.532;49.398;2024-03-07T10:12:11;2.10;49.47
69715;HTU21D;56981;53.532;49.398;2024-03-07T10:14:51;1.93;49.15
69715;HTU21D;56981;53.532;49.398;2024-03-07T10:17:19;2.05;50.33
69715;HTU21D;56981;53.532;49.398;2024-03-07T10:19:49;1.84;50.95
69715;HTU21D;56981;53.532;49.398;2024-03-07T10:22:17;1.91;51.95
69715;HTU21D;56981;53.532;49.398;2024-03-07T10:24:52;1.97;51.00
69715;HTU21D;56981;53.532;49.398;2024-03-07T10:27:21;1.71;51.98
69715;HTU21D;56981;53.532;49.398;2024-03-07T10:29:48;1.86;51.75
69715;HTU21D;56981;53.532;49.398;2024-03-07T10:32:21;2.10;49.47
69715;HTU21D;56981;53.532;49.398;2024-03-07T10:34:52;2.38;50.44
69715;HTU21D;56981;53.532;49.398;2024-03-07T10:37:19;2.19;51.11
69715;HTU21D;56981;53.532;49.398;2024-03-07T10:39:50;2.25;50.59
69715;HTU21D;56981;53.532;49.398;2024-03-07T10:42:18;2.17;49.31
69715;HTU21D;56981;53.532;49.398;2024-03-07T10:44:48;1.33;53.01
69715;HTU21D;56981;53.532;49.398;2024-03-07T10:47:20;0.99;54.12
69715;HTU21D;56981;53.532;49.398;2024-03-07T10:50:09;0.80;53.14
69715;HTU21D;56981;53.532;49.398;2024-03-07T10:52:52;0.73;53.68
69715;HTU21D;56981;53.532;49.398;2024-03-07T10:55:28;0.49;54.21
69715;HTU21D;56981;53.532;49.398;2024-03-07T10:58:04;0.76;54.14
69715;HTU21D;56981;53.532;49.398;2024-03-07T11:00:33;0.90;54.04
69715;HTU21D;56981;53.532;49.398;2024-03-07T11:03:02;1.16;54.15
69715;HTU21D;56981;53.532;49.398;2024-03-07T11:05:35;1.31;54.47
69715;HTU21D;56981;53.532;49.398;2024-03-07T11:08:02;0.99;53.46
69715;HTU21D;56981;53.532;49.398;2024-03-07T11:10:34;0.93;53.78
69715;HTU21D;56981;53.532;49.398;2024-03-07T11:13:02;1.14;53.59
69715;HTU21D;56981;53.532;49.398;2024-03-07T11:15:29;1.21;52.55
69715;HTU21D;56981;53.532;49.398;2024-03-07T11:17:57;1.37;54.65
69715;HTU21D;56981;53.532;49.398;2024-03-07T11:20:26;1.58;53.01
69715;HTU21D;56981;53.532;49.398;2024-03-07T11:22:52;1.67;52.66
69715;HTU21D;56981;53.532;49.398;2024-03-07T11:25:22;1.82;52.62
69715;HTU21D;56981;53.532;49.398;2024-03-07T11:27:56;1.88;52.71
69715;HTU21D;56981;53.532;49.398;2024-03-07T11:30:23;1.91;52.07
69715;HTU21D;56981;53.532;49.398;2024-03-07T11:32:52;1.53;53.20
69715;HTU21D;56981;53.532;49.398;2024-03-07T11:35:33;1.45;53.95
69715;HTU21D;56981;53.532;49.398;2024-03-07T11:38:06;1.36;53.75
69715;HTU21D;56981;53.532;49.398;2024-03-07T11:43:26;0.87;54.61
69715;HTU21D;56981;53.532;49.398;2024-03-07T11:45:53;0.86;55.85
69715;HTU21D;56981;53.532;49.398;2024-03-07T11:48:19;0.61;55.38
69715;HTU21D;56981;53.532;49.398;2024-03-07T11:50:47;0.75;55.84
69715;HTU21D;56981;53.532;49.398;2024-03-07T11:53:13;0.64;55.42
69715;HTU21D;56981;53.532;49.398;2024-03-07T11:55:40;0.80;56.12
69715;HTU21D;56981;53.532;49.398;2024-03-07T11:58:14;1.01;55.40
69715;HTU21D;56981;53.532;49.398;2024-03-07T12:00:45;1.08;55.79
69715;HTU21D;56981;53.532;49.398;2024-03-07T12:03:15;1.08;55.41
69715;HTU21D;56981;53.532;49.398;2024-03-07T12:05:47;1.07;54.45
69715;HTU21D;56981;53.532;49.398;2024-03-07T12:08:14;1.07;54.95
69715;HTU21D;56981;53.532;49.398;2024-03-07T12:10:43;1.02;55.49
69715;HTU21D;56981;53.532;49.398;2024-03-07T12:13:12;0.96;55.13
69715;HTU21D;56981;53.532;49.398;2024-03-07T12:15:41;0.81;55.92
69715;HTU21D;56981;53.532;49.398;2024-03-07T12:18:09;0.78;56.19
69715;HTU21D;56981;53.532;49.398;2024-03-07T12:20:37;0.79;56.46
69715;HTU21D;56981;53.532;49.398;2024-03-07T12:23:04;0.84;55.84
69715;HTU21D;56981;53.532;49.398;2024-03-07T12:25:40;0.88;57.11
69715;HTU21D;56981;53.532;49.398;2024-03-07T12:28:09;0.93;56.07
69715;HTU21D;56981;53.532;49.398;2024-03-07T12:30:51;1.02;55.97
69715;HTU21D;56981;53.532;49.398;2024-03-07T12:33:18;1.11;55.03
69715;HTU21D;56981;53.532;49.398;2024-03-07T12:35:49;1.11;55.99
69715;HTU21D;56981;53.532;49.398;2024-03-07T12:38:19;0.90;55.72
69715;HTU21D;56981;53.532;49.398;2024-03-07T12:40:45;0.77;55.53
69715;HTU21D;56981;53.532;49.398;2024-03-07T12:45:50;0.30;58.23
69715;HTU21D;56981;53.532;49.398;2024-03-07T12:48:20;0.31;57.82
69715;HTU21D;56981;53.532;49.398;2024-03-07T12:50:50;0.22;57.83
69715;HTU21D;56981;53.532;49.398;2024-03-07T12:53:19;0.16;57.58
69715;HTU21D;56981;53.532;49.398;2024-03-07T12:55:48;-0.09;58.29
69715;HTU21D;56981;53.532;49.398;2024-03-07T12:58:18;-0.45;59.72
69715;HTU21D;56981;53.532;49.398;2024-03-07T13:00:55;-0.47;59.88
69715;HTU21D;56981;53.532;49.398;2024-03-07T13:03:23;-0.47;60.08
69715;HTU21D;56981;53.532;49.398;2024-03-07T13:05:53;-0.59;61.05
69715;HTU21D;56981;53.532;49.398;2024-03-07T13:08:20;-0.59;59.49
69715;HTU21D;56981;53.532;49.398;2024-03-07T13:10:51;-0.71;60.40
69715;HTU21D;56981;53.532;49.398;2024-03-07T13:13:17;-0.74;59.97
69715;HTU21D;56981;53.532;49.398;2024-03-07T13:15:43;-0.80;60.78
69715;HTU21D;56981;53.532;49.398;2024-03-07T13:18:13;-0.67;60.35
69715;HTU21D;56981;53.532;49.398;2024-03-07T13:20:39;-0.81;59.86
69715;HTU21D;56981;53.532;49.398;2024-03-07T13:23:09;-0.97;61.34
69715;HTU21D;56981;53.532;49.398;2024-03-07T13:25:36;-1.23;61.99
69715;HTU21D;56981;53.532;49.398;2024-03-07T13:28:07;-1.27;62.21
69715;HTU21D;56981;53.532;49.398;2024-03-07T13:30:34;-1.36;62.74
69715;HTU21D;56981;53.532;49.398;2024-03-07T13:33:02;-1.35;63.49
69715;HTU21D;56981;53.532;49.398;2024-03-07T13:35:29;-1.33;62.78
69715;HTU21D;56981;53.532;49.398;2024-03-07T13:37:56;-1.38;62.91
69715;HTU21D;56981;53.532;49.398;2024-03-07T13:40:26;-1.52;63.60
69715;HTU21D;56981;53.532;49.398;2024-03-07T13:42:57;-1.70;64.18
69715;HTU21D;56981;53.532;49.398;2024-03-07T13:45:36;-1.84;64.34
69715;HTU21D;56981;53.532;49.398;2024-03-07T13:48:09;-1.94;64.45
69715;HTU21D;56981;53.532;49.398;2024-03-07T13:50:47;-2.03;65.33
69715;HTU21D;56981;53.532;49.398;2024-03-07T13:53:18;-2.14;66.34
69715;HTU21D;56981;53.532;49.398;2024-03-07T13:56:28;-2.23;65.87
69715;HTU21D;56981;53.532;49.398;2024-03-07T13:59:09;-2.30;66.28
69715;HTU21D;56981;53.532;49.398;2024-03-07T14:01:45;-2.42;67.03
69715;HTU21D;56981;53.532;49.398;2024-03-07T14:07:44;-2.52;66.59
69715;HTU21D;56981;53.532;49.398;2024-03-07T14:29:43;-3.21;67.10
69715;HTU21D;56981;53.532;49.398;2024-03-07T14:32:13;-3.30;67.46
69715;HTU21D;56981;53.532;49.398;2024-03-07T14:35:00;-3.38;67.79
69715;HTU21D;56981;53.532;49.398;2024-03-07T14:37:53;-3.46;67.94
69715;HTU21D;56981;53.532;49.398;2024-03-07T14:40:21;-3.54;68.20
69715;HTU21D;56981;53.532;49.398;2024-03-07T14:42:50;-3.58;68.26
69715;HTU21D;56981;53.532;49.398;2024-03-07T14:45:31;-3.67;68.24
69715;HTU21D;56981;53.532;49.398;2024-03-07T14:47:59;-3.76;68.98
69715;HTU21D;56981;53.532;49.398;2024-03-07T14:50:28;-3.84;68.72
69715;HTU21D;56981;53.532;49.398;2024-03-07T14:52:58;-3.92;69.12
69715;HTU21D;56981;53.532;49.398;2024-03-07T14:55:25;-3.96;68.97
69715;HTU21D;56981;53.532;49.398;2024-03-07T14:57:51;-3.97;69.74
69715;HTU21D;56981;53.532;49.398;2024-03-07T15:00:18;-4.04;69.82
69715;HTU21D;56981;53.532;49.398;2024-03-07T15:02:56;-4.11;69.76
69715;HTU21D;56981;53.532;49.398;2024-03-07T15:05:56;-4.14;69.58
69715;HTU21D;56981;53.532;49.398;2024-03-07T15:08:24;-4.22;69.99
69715;HTU21D;56981;53.532;49.398;2024-03-07T15:11:21;-4.27;69.87
69715;HTU21D;56981;53.532;49.398;2024-03-07T15:13:53;-4.34;70.43
69715;HTU21D;56981;53.532;49.398;2024-03-07T15:16:20;-4.39;70.79
69715;HTU21D;56981;53.532;49.398;2024-03-07T15:18:49;-4.45;71.08
69715;HTU21D;56981;53.532;49.398;2024-03-07T15:21:16;-4.50;71.20
69715;HTU21D;56981;53.532;49.398;2024-03-07T15:23:43;-4.56;71.49
69715;HTU21D;56981;53.532;49.398;2024-03-07T15:26:10;-4.60;71.95
69715;HTU21D;56981;53.532;49.398;2024-03-07T15:28:37;-4.64;71.87
69715;HTU21D;56981;53.532;49.398;2024-03-07T15:31:03;-4.67;72.03
69715;HTU21D;56981;53.532;49.398;2024-03-07T15:33:33;-4.67;72.37
69715;HTU21D;56981;53.532;49.398;2024-03-07T15:35:59;-4.70;72.37
69715;HTU21D;56981;53.532;49.398;2024-03-07T15:38:26;-4.72;72.50
69715;HTU21D;56981;53.532;49.398;2024-03-07T15:41:00;-4.71;72.16
69715;HTU21D;56981;53.532;49.398;2024-03-07T15:43:27;-4.74;72.25